createdAt,value
2023-04-30T00:00:51.897Z,11.1
2023-04-30T00:01:58.874Z,11.3
2023-04-30T00:03:05.923Z,11.2
2023-04-30T00:04:12.656Z,10.9
2023-04-30T00:05:19.513Z,11
2023-04-30T00:06:28.311Z,11.2
2023-04-30T00:07:33.316Z,11.3
2023-04-30T00:08:40.226Z,11.3
2023-04-30T00:09:47.040Z,11
2023-04-30T00:10:53.950Z,11.3
2023-04-30T00:12:00.755Z,11.1
2023-04-30T00:13:07.623Z,11.2
2023-04-30T00:14:14.447Z,11.3
2023-04-30T00:15:21.464Z,11.3
2023-04-30T00:16:28.301Z,11.3
2023-04-30T00:17:35.110Z,11.1
2023-04-30T00:18:41.953Z,11.1
2023-04-30T00:19:48.806Z,11.1
2023-04-30T00:20:55.721Z,11.1
2023-04-30T00:22:02.543Z,11.1
2023-04-30T00:23:09.388Z,11.2
2023-04-30T00:24:16.220Z,11.2
2023-04-30T00:25:23.028Z,11.2
2023-04-30T00:26:29.888Z,11.3
2023-04-30T00:27:37.126Z,11.2
2023-04-30T00:28:43.492Z,11.2
2023-04-30T00:29:50.338Z,11.3
2023-04-30T00:30:57.211Z,11.1
2023-04-30T00:32:04.213Z,11.2
2023-04-30T00:33:11.081Z,11.1
2023-04-30T00:34:17.985Z,11.1
2023-04-30T00:35:24.778Z,11.1
2023-04-30T00:36:31.663Z,10.9
2023-04-30T00:37:38.558Z,10.9
2023-04-30T00:38:45.406Z,11.1
2023-04-30T00:39:52.448Z,11
2023-04-30T00:40:58.994Z,11.1
2023-04-30T00:42:05.850Z,11.1
2023-04-30T00:43:12.806Z,11
2023-04-30T00:44:19.617Z,11
2023-04-30T00:45:26.510Z,10.8
2023-04-30T00:46:33.354Z,10.9
2023-04-30T00:47:40.219Z,10.9
2023-04-30T00:48:47.267Z,11
2023-04-30T00:49:54.363Z,10.9
2023-04-30T00:51:01.026Z,11
2023-04-30T00:52:07.856Z,11
2023-04-30T00:53:14.642Z,11
2023-04-30T00:54:21.552Z,11.1
2023-04-30T00:55:28.333Z,11.1
2023-04-30T00:56:35.170Z,11.1
2023-04-30T00:57:42.017Z,11.3
2023-04-30T00:58:48.863Z,11.3
2023-04-30T00:59:55.972Z,11.2
2023-04-30T01:01:02.738Z,11
2023-04-30T01:02:09.543Z,11
2023-04-30T01:03:16.505Z,11.1
2023-04-30T01:04:23.129Z,10.9
2023-04-30T01:05:29.983Z,10.8
2023-04-30T01:06:36.896Z,11
2023-04-30T01:07:43.568Z,11
2023-04-30T01:08:50.289Z,11.1
2023-04-30T01:09:57.147Z,11
2023-04-30T01:11:03.946Z,10.9
2023-04-30T01:12:21.183Z,11
2023-04-30T01:13:39.216Z,11
2023-04-30T01:14:53.948Z,11
2023-04-30T01:16:06.040Z,11
2023-04-30T01:17:15.435Z,11.1
2023-04-30T01:18:30.555Z,11.2
2023-04-30T01:19:42.481Z,11.2
2023-04-30T01:20:49.243Z,11.1
2023-04-30T01:21:56.043Z,11.1
2023-04-30T01:23:03.058Z,11
2023-04-30T01:24:20.256Z,11
2023-04-30T01:25:32.249Z,11.2
2023-04-30T01:26:44.263Z,11.2
2023-04-30T01:27:56.284Z,11.1
2023-04-30T01:29:08.326Z,11.1
2023-04-30T01:30:15.182Z,11
2023-04-30T01:31:22.100Z,11.3
2023-04-30T01:32:28.907Z,11.2
2023-04-30T01:33:35.666Z,11.3
2023-04-30T01:34:42.566Z,11.1
2023-04-30T01:35:49.555Z,11.1
2023-04-30T01:37:01.501Z,11
2023-04-30T01:38:18.604Z,10.9
2023-04-30T01:39:28.615Z,10.9
2023-04-30T01:40:43.491Z,11.1
2023-04-30T01:41:59.757Z,11.1
2023-04-30T01:43:17.838Z,11
2023-04-30T01:44:35.557Z,10.9
2023-04-30T01:45:52.751Z,10.9
2023-04-30T01:47:04.750Z,11
2023-04-30T01:48:11.541Z,10.9
2023-04-30T01:49:26.065Z,10.9
2023-04-30T01:50:43.357Z,11.1
2023-04-30T01:51:53.143Z,11.1
2023-04-30T01:53:07.838Z,11.1
2023-04-30T01:54:14.673Z,11
2023-04-30T01:55:26.637Z,10.9
2023-04-30T01:56:33.452Z,10.8
2023-04-30T01:57:40.445Z,10.9
2023-04-30T01:58:47.232Z,11
2023-04-30T01:59:54.240Z,10.8
2023-04-30T02:01:00.779Z,10.6
2023-04-30T02:02:07.528Z,10.8
2023-04-30T02:03:14.526Z,10.9
2023-04-30T02:04:21.194Z,11
2023-04-30T02:05:27.958Z,11.1
2023-04-30T02:06:34.801Z,10.9
2023-04-30T02:07:41.728Z,10.7
2023-04-30T02:08:48.647Z,10.8
2023-04-30T02:09:55.659Z,10.8
2023-04-30T02:11:02.241Z,10.7
2023-04-30T02:12:09.079Z,10.5
2023-04-30T02:13:15.817Z,10.6
2023-04-30T02:14:22.642Z,10.7
2023-04-30T02:15:29.401Z,10.6
2023-04-30T02:16:36.191Z,10.6
2023-04-30T02:17:42.926Z,10.4
2023-04-30T02:18:49.745Z,10.5
2023-04-30T02:19:56.631Z,10.7
2023-04-30T02:21:03.363Z,10.6
2023-04-30T02:22:10.166Z,10.5
2023-04-30T02:23:16.953Z,10.6
2023-04-30T02:24:23.900Z,10.4
2023-04-30T02:25:30.790Z,10.3
2023-04-30T02:26:37.621Z,10.4
2023-04-30T02:27:44.458Z,10.4
2023-04-30T02:28:51.148Z,10.3
2023-04-30T02:29:57.946Z,10.1
2023-04-30T02:31:04.866Z,10.1
2023-04-30T02:32:11.730Z,10.1
2023-04-30T02:33:18.508Z,10
2023-04-30T02:34:25.417Z,10.2
2023-04-30T02:35:32.249Z,10
2023-04-30T02:36:39.001Z,10.1
2023-04-30T02:37:45.793Z,9.8
2023-04-30T02:38:52.545Z,9.7
2023-04-30T02:39:59.345Z,9.7
2023-04-30T02:41:06.248Z,9.8
2023-04-30T02:42:13.258Z,9.8
2023-04-30T02:43:20.087Z,9.7
2023-04-30T02:44:26.855Z,9.5
2023-04-30T02:45:33.724Z,9.4
2023-04-30T02:46:40.557Z,9.4
2023-04-30T02:47:47.474Z,9.5
2023-04-30T02:48:54.303Z,9.3
2023-04-30T02:50:01.298Z,9.4
2023-04-30T02:51:08.243Z,9.6
2023-04-30T02:52:15.028Z,9.6
2023-04-30T02:53:21.919Z,9.4
2023-04-30T02:54:28.863Z,9.4
2023-04-30T02:55:35.692Z,9.6
2023-04-30T02:56:42.536Z,9.8
2023-04-30T02:57:49.439Z,9.8
2023-04-30T02:58:56.367Z,9.5
2023-04-30T03:00:03.385Z,9.5
2023-04-30T03:01:10.936Z,9.3
2023-04-30T03:02:17.743Z,9.4
2023-04-30T03:03:24.603Z,9.4
2023-04-30T03:04:31.334Z,9.4
2023-04-30T03:05:38.083Z,9.5
2023-04-30T03:06:44.971Z,9.4
2023-04-30T03:07:51.658Z,9.3
2023-04-30T03:08:58.468Z,9.3
2023-04-30T03:10:05.369Z,9.5
2023-04-30T03:11:12.496Z,9.6
2023-04-30T03:12:19.363Z,9.6
2023-04-30T03:13:26.188Z,9.6
2023-04-30T03:14:33.025Z,9.5
2023-04-30T03:15:39.856Z,9.6
2023-04-30T03:16:46.743Z,9.6
2023-04-30T03:17:53.652Z,9.7
2023-04-30T03:19:00.458Z,9.7
2023-04-30T03:20:07.269Z,9.8
2023-04-30T03:21:14.359Z,9.7
2023-04-30T03:22:21.393Z,9.5
2023-04-30T03:23:28.191Z,9.5
2023-04-30T03:24:34.958Z,9.7
2023-04-30T03:25:41.725Z,9.6
2023-04-30T03:26:48.544Z,9.5
2023-04-30T03:27:55.354Z,9.6
2023-04-30T03:29:02.267Z,9.6
2023-04-30T03:30:09.157Z,9.6
2023-04-30T03:31:16.000Z,9.7
2023-04-30T03:32:22.802Z,9.6
2023-04-30T03:33:29.807Z,9.7
2023-04-30T03:34:36.795Z,9.8
2023-04-30T03:35:43.612Z,9.8
2023-04-30T03:36:50.421Z,9.9
2023-04-30T03:37:57.268Z,9.7
2023-04-30T03:39:04.075Z,9.8
2023-04-30T03:40:10.984Z,9.8
2023-04-30T03:41:17.742Z,9.9
2023-04-30T03:42:24.522Z,9.9
2023-04-30T03:43:31.288Z,9.9
2023-04-30T03:44:38.055Z,9.9
2023-04-30T03:45:45.242Z,9.7
2023-04-30T03:46:51.948Z,9.8
2023-04-30T03:47:58.795Z,9.8
2023-04-30T03:49:05.537Z,9.6
2023-04-30T03:50:12.397Z,9.8
2023-04-30T03:51:19.244Z,9.9
2023-04-30T03:52:26.049Z,9.9
2023-04-30T03:53:32.848Z,9.9
2023-04-30T03:54:39.678Z,9.9
2023-04-30T03:55:46.456Z,9.8
2023-04-30T03:56:53.504Z,9.7
2023-04-30T03:58:00.264Z,9.8
2023-04-30T03:59:07.097Z,9.5
2023-04-30T04:00:13.870Z,9.7
2023-04-30T04:01:20.716Z,9.9
2023-04-30T04:02:27.722Z,9.6
2023-04-30T04:03:34.646Z,9.5
2023-04-30T04:04:41.427Z,9.5
2023-04-30T04:05:48.308Z,9.6
2023-04-30T04:06:55.108Z,9.5
2023-04-30T04:08:01.957Z,9.6
2023-04-30T04:09:08.979Z,9.4
2023-04-30T04:10:15.830Z,9.4
2023-04-30T04:11:22.615Z,9.6
2023-04-30T04:12:29.386Z,9.6
2023-04-30T04:13:36.324Z,9.4
2023-04-30T04:14:43.262Z,9.5
2023-04-30T04:15:50.037Z,9.5
2023-04-30T04:16:56.804Z,9.4
2023-04-30T04:18:03.652Z,9.5
2023-04-30T04:19:10.459Z,9.5
2023-04-30T04:20:17.404Z,9.4
2023-04-30T04:21:24.183Z,9.6
2023-04-30T04:22:31.004Z,9.5
2023-04-30T04:23:37.779Z,9.5
2023-04-30T04:24:44.617Z,9.6
2023-04-30T04:25:51.505Z,9.7
2023-04-30T04:26:58.342Z,9.5
2023-04-30T04:28:05.204Z,9.6
2023-04-30T04:29:11.977Z,9.4
2023-04-30T04:30:18.837Z,9.6
2023-04-30T04:31:25.737Z,9.7
2023-04-30T04:32:32.767Z,9.5
2023-04-30T04:33:39.431Z,9.6
2023-04-30T04:34:46.185Z,9.6
2023-04-30T04:35:52.995Z,9.4
2023-04-30T04:36:59.959Z,9.4
2023-04-30T04:38:06.890Z,9.4
2023-04-30T04:39:13.691Z,9.5
2023-04-30T04:40:20.549Z,9.4
2023-04-30T04:41:27.330Z,9.6
2023-04-30T04:42:34.183Z,9.6
2023-04-30T04:43:41.067Z,9.5
2023-04-30T04:44:47.892Z,9.7
2023-04-30T04:45:54.701Z,9.8
2023-04-30T04:47:01.511Z,9.8
2023-04-30T04:48:08.385Z,9.7
2023-04-30T04:49:15.301Z,9.6
2023-04-30T04:50:22.140Z,9.7
2023-04-30T04:51:28.905Z,9.6
2023-04-30T04:52:35.657Z,9.8
2023-04-30T04:53:42.443Z,9.8
2023-04-30T04:54:49.451Z,9.6
2023-04-30T04:55:56.290Z,9.5
2023-04-30T04:57:03.210Z,9.7
2023-04-30T04:58:09.998Z,9.6
2023-04-30T04:59:16.778Z,9.7
2023-04-30T05:00:23.657Z,9.7
2023-04-30T05:01:31.454Z,9.7
2023-04-30T05:02:38.216Z,9.9
2023-04-30T05:03:45.113Z,9.7
2023-04-30T05:04:51.872Z,9.8
2023-04-30T05:05:58.843Z,9.7
2023-04-30T05:07:05.759Z,9.9
2023-04-30T05:08:12.546Z,9.8
2023-04-30T05:09:19.311Z,9.9
2023-04-30T05:10:26.179Z,9.6
2023-04-30T05:11:33.175Z,9.7
2023-04-30T05:12:40.090Z,9.7
2023-04-30T05:13:46.942Z,9.8
2023-04-30T05:14:53.795Z,9.8
2023-04-30T05:16:00.649Z,9.8
2023-04-30T05:17:07.633Z,9.8
2023-04-30T05:18:14.631Z,9.8
2023-04-30T05:19:21.668Z,9.6
2023-04-30T05:20:28.343Z,9.7
2023-04-30T05:21:35.340Z,9.7
2023-04-30T05:22:42.150Z,9.8
2023-04-30T05:23:49.226Z,9.8
2023-04-30T05:24:56.072Z,9.7
2023-04-30T05:26:02.949Z,9.6
2023-04-30T05:27:09.710Z,9.6
2023-04-30T05:28:16.478Z,9.6
2023-04-30T05:29:23.320Z,9.4
2023-04-30T05:30:30.247Z,9.5
2023-04-30T05:31:37.180Z,9.7
2023-04-30T05:32:44.479Z,9.5
2023-04-30T05:33:51.291Z,9.6
2023-04-30T05:34:58.273Z,9.4
2023-04-30T05:36:05.198Z,9.6
2023-04-30T05:37:12.006Z,9.7
2023-04-30T05:38:18.830Z,9.6
2023-04-30T05:39:25.641Z,9.7
2023-04-30T05:40:32.484Z,9.9
2023-04-30T05:41:39.329Z,9.8
2023-04-30T05:42:46.125Z,9.9
2023-04-30T05:43:52.930Z,9.7
2023-04-30T05:44:59.757Z,9.8
2023-04-30T05:46:06.810Z,10
2023-04-30T05:47:13.451Z,10
2023-04-30T05:48:20.258Z,9.9
2023-04-30T05:49:27.072Z,9.6
2023-04-30T05:50:33.899Z,9.8
2023-04-30T05:51:40.675Z,9.6
2023-04-30T05:52:47.606Z,9.7
2023-04-30T05:53:54.397Z,9.7
2023-04-30T05:55:01.294Z,9.7
2023-04-30T05:56:08.371Z,9.6
2023-04-30T05:57:15.355Z,9.5
2023-04-30T05:58:22.403Z,9.7
2023-04-30T05:59:29.427Z,9.6
2023-04-30T06:00:36.284Z,9.6
2023-04-30T06:01:43.129Z,9.7
2023-04-30T06:02:49.909Z,9.8
2023-04-30T06:03:56.762Z,9.9
2023-04-30T06:05:03.727Z,9.6
2023-04-30T06:06:13.492Z,9.4
2023-04-30T06:07:20.181Z,9.4
2023-04-30T06:08:26.943Z,9.4
2023-04-30T06:09:33.833Z,9.6
2023-04-30T06:10:40.705Z,9.6
2023-04-30T06:11:47.549Z,9.6
2023-04-30T06:12:54.337Z,9.8
2023-04-30T06:14:01.236Z,9.6
2023-04-30T06:15:08.016Z,9.8
2023-04-30T06:16:14.905Z,9.9
2023-04-30T06:17:22.020Z,9.8
2023-04-30T06:18:28.847Z,9.8
2023-04-30T06:19:35.704Z,9.7
2023-04-30T06:20:42.602Z,9.7
2023-04-30T06:21:49.579Z,9.8
2023-04-30T06:22:56.402Z,9.9
2023-04-30T06:24:03.469Z,9.9
2023-04-30T06:25:10.346Z,9.8
2023-04-30T06:26:17.286Z,9.7
2023-04-30T06:27:24.561Z,9.7
2023-04-30T06:28:31.488Z,9.7
2023-04-30T06:29:38.563Z,9.8
2023-04-30T06:30:45.318Z,9.8
2023-04-30T06:31:52.197Z,9.9
2023-04-30T06:32:59.041Z,10
2023-04-30T06:34:05.869Z,9.9
2023-04-30T06:35:12.857Z,9.8
2023-04-30T06:36:19.634Z,9.8
2023-04-30T06:37:26.506Z,10
2023-04-30T06:38:33.277Z,9.9
2023-04-30T06:39:40.264Z,10
2023-04-30T06:40:47.394Z,10
2023-04-30T06:41:54.184Z,10.1
2023-04-30T06:43:01.052Z,10.1
2023-04-30T06:44:07.846Z,10.2
2023-04-30T06:45:14.814Z,10.3
2023-04-30T06:46:21.812Z,10.5
2023-04-30T06:47:28.615Z,10.5
2023-04-30T06:48:38.139Z,10.5
2023-04-30T06:49:44.969Z,10.5
2023-04-30T06:50:51.853Z,10.4
2023-04-30T06:51:59.570Z,10.4
2023-04-30T06:53:06.501Z,10.3
2023-04-30T06:54:16.493Z,10.4
2023-04-30T06:55:23.402Z,10.4
2023-04-30T06:56:30.202Z,10.3
2023-04-30T06:57:37.122Z,10.4
2023-04-30T06:58:43.945Z,10.4
2023-04-30T06:59:50.871Z,10.4
2023-04-30T07:00:57.756Z,10.5
2023-04-30T07:02:04.601Z,10.5
2023-04-30T07:03:11.717Z,10.6
2023-04-30T07:04:18.392Z,10.7
2023-04-30T07:05:25.339Z,10.6
2023-04-30T07:06:32.162Z,10.6
2023-04-30T07:07:38.998Z,10.7
2023-04-30T07:08:45.752Z,10.6
2023-04-30T07:09:52.688Z,10.7
2023-04-30T07:10:59.410Z,10.9
2023-04-30T07:12:06.222Z,10.8
2023-04-30T07:13:13.002Z,10.9
2023-04-30T07:14:19.731Z,11.1
2023-04-30T07:15:26.526Z,10.9
2023-04-30T07:16:33.580Z,10.8
2023-04-30T07:17:40.235Z,11
2023-04-30T07:18:47.275Z,11.2
2023-04-30T07:19:54.218Z,11.2
2023-04-30T07:21:00.798Z,11.2
2023-04-30T07:22:07.645Z,11.3
2023-04-30T07:23:14.506Z,11.4
2023-04-30T07:24:21.353Z,11.6
2023-04-30T07:25:28.156Z,11.6
2023-04-30T07:26:34.896Z,11.6
2023-04-30T07:27:41.664Z,11.7
2023-04-30T07:28:48.580Z,11.6
2023-04-30T07:29:55.973Z,11.6
2023-04-30T07:31:02.220Z,11.3
2023-04-30T07:32:09.013Z,11.6
2023-04-30T07:33:15.866Z,11.7
2023-04-30T07:34:22.959Z,11.8
2023-04-30T07:35:29.736Z,11.9
2023-04-30T07:36:36.556Z,12
2023-04-30T07:37:43.383Z,11.8
2023-04-30T07:38:51.219Z,11.7
2023-04-30T07:39:58.173Z,11.6
2023-04-30T07:41:04.964Z,11.5
2023-04-30T07:42:11.719Z,11.7
2023-04-30T07:43:18.541Z,11.5
2023-04-30T07:44:25.276Z,11.7
2023-04-30T07:45:32.210Z,11.8
2023-04-30T07:46:39.288Z,11.8
2023-04-30T07:47:46.058Z,11.7
2023-04-30T07:48:52.794Z,11.9
2023-04-30T07:49:59.638Z,11.9
2023-04-30T07:51:06.557Z,11.6
2023-04-30T07:52:13.391Z,11.7
2023-04-30T07:53:20.261Z,11.8
2023-04-30T07:54:27.054Z,11.9
2023-04-30T07:55:33.792Z,11.9
2023-04-30T07:56:40.555Z,11.9
2023-04-30T07:57:47.578Z,12
2023-04-30T07:58:54.322Z,12
2023-04-30T08:00:01.072Z,11.9
2023-04-30T08:01:08.257Z,12.1
2023-04-30T08:02:15.063Z,12.4
2023-04-30T08:03:22.205Z,12.3
2023-04-30T08:04:28.923Z,12.4
2023-04-30T08:05:35.724Z,12.6
2023-04-30T08:06:42.589Z,12.7
2023-04-30T08:07:49.310Z,12.8
2023-04-30T08:08:56.189Z,13
2023-04-30T08:10:03.108Z,12.8
2023-04-30T08:11:10.312Z,13
2023-04-30T08:12:17.098Z,13
2023-04-30T08:13:23.892Z,13
2023-04-30T08:14:30.793Z,13.3
2023-04-30T08:15:37.695Z,13.5
2023-04-30T08:16:44.558Z,13.7
2023-04-30T08:17:51.479Z,13.8
2023-04-30T08:18:58.239Z,13.9
2023-04-30T08:20:05.028Z,13.9
2023-04-30T08:21:12.164Z,13.7
2023-04-30T08:22:19.005Z,13.2
2023-04-30T08:23:25.806Z,13
2023-04-30T08:24:32.578Z,13.1
2023-04-30T08:25:39.681Z,13
2023-04-30T08:26:46.728Z,12.9
2023-04-30T08:27:53.527Z,12.9
2023-04-30T08:29:00.365Z,12.9
2023-04-30T08:30:07.185Z,13
2023-04-30T08:31:14.271Z,12.9
2023-04-30T08:32:21.262Z,13
2023-04-30T08:33:27.976Z,13.1
2023-04-30T08:34:34.825Z,13.5
2023-04-30T08:35:41.628Z,13.8
2023-04-30T08:36:48.435Z,13.6
2023-04-30T08:37:55.302Z,13.8
2023-04-30T08:39:02.328Z,13.8
2023-04-30T08:40:09.143Z,14
2023-04-30T08:41:15.905Z,14
2023-04-30T08:42:22.701Z,14.1
2023-04-30T08:43:29.636Z,14
2023-04-30T08:44:36.586Z,14
2023-04-30T08:45:43.476Z,13.9
2023-04-30T08:46:50.420Z,14.1
2023-04-30T08:47:57.305Z,14.4
2023-04-30T08:49:04.126Z,14.5
2023-04-30T08:50:11.036Z,14.1
2023-04-30T08:51:17.837Z,14
2023-04-30T08:52:24.587Z,14.1
2023-04-30T08:53:31.402Z,14.2
2023-04-30T08:54:38.328Z,14.2
2023-04-30T08:55:45.129Z,14.4
2023-04-30T08:56:52.028Z,14.1
2023-04-30T08:57:58.897Z,14.4
2023-04-30T08:59:05.699Z,14.2
2023-04-30T09:00:12.483Z,14.4
2023-04-30T09:01:19.312Z,14.5
2023-04-30T09:02:26.222Z,14.6
2023-04-30T09:03:33.196Z,14.6
2023-04-30T09:04:39.875Z,14.5
2023-04-30T09:05:46.659Z,14.2
2023-04-30T09:06:53.455Z,14.4
2023-04-30T09:08:03.447Z,14.7
2023-04-30T09:09:07.159Z,14.8
2023-04-30T09:10:16.868Z,14.7
2023-04-30T09:11:23.678Z,14.6
2023-04-30T09:12:33.131Z,14.4
2023-04-30T09:13:39.887Z,14.4
2023-04-30T09:14:46.670Z,14.5
2023-04-30T09:16:03.979Z,14.5
2023-04-30T09:17:10.664Z,14.3
2023-04-30T09:18:17.747Z,14.3
2023-04-30T09:19:24.246Z,14.3
2023-04-30T09:20:31.209Z,14.4
2023-04-30T09:21:38.017Z,14.4
2023-04-30T09:22:44.833Z,14.6
2023-04-30T09:23:51.670Z,14.9
2023-04-30T09:24:58.393Z,14.8
2023-04-30T09:26:05.266Z,14.8
2023-04-30T09:27:12.085Z,14.7
2023-04-30T09:28:18.848Z,14.7
2023-04-30T09:29:25.733Z,14.9
2023-04-30T09:30:40.354Z,14.6
2023-04-30T09:31:47.433Z,14.7
2023-04-30T09:32:54.082Z,14.6
2023-04-30T09:34:00.928Z,14.3
2023-04-30T09:35:07.763Z,14
2023-04-30T09:36:22.677Z,14
2023-04-30T09:37:29.537Z,14.2
2023-04-30T09:38:38.975Z,14.5
2023-04-30T09:39:45.833Z,14.9
2023-04-30T09:40:57.851Z,15.2
2023-04-30T09:42:04.654Z,14.8
2023-04-30T09:43:11.470Z,14.7
2023-04-30T09:44:18.285Z,14.9
2023-04-30T09:45:33.232Z,15.1
2023-04-30T09:46:45.294Z,15
2023-04-30T09:47:54.054Z,14.8
2023-04-30T09:48:58.941Z,15.2
2023-04-30T09:50:05.814Z,15.5
2023-04-30T09:51:12.798Z,15.5
2023-04-30T09:52:19.661Z,15.3
2023-04-30T09:53:26.610Z,15.6
2023-04-30T09:54:33.469Z,15.5
2023-04-30T09:55:40.225Z,15.2
2023-04-30T09:56:46.987Z,15.2
2023-04-30T09:57:54.688Z,15.3
2023-04-30T09:59:01.674Z,15.4
2023-04-30T10:00:08.484Z,15.5
2023-04-30T10:01:15.660Z,15
2023-04-30T10:02:22.480Z,14.9
2023-04-30T10:03:29.266Z,15.4
2023-04-30T10:04:36.250Z,15.6
2023-04-30T10:05:43.085Z,15.6
2023-04-30T10:06:50.016Z,15.7
2023-04-30T10:07:56.757Z,15.5
2023-04-30T10:09:03.560Z,15.4
2023-04-30T10:10:10.447Z,15.3
2023-04-30T10:11:17.223Z,15.5
2023-04-30T10:12:24.094Z,15.5
2023-04-30T10:13:30.906Z,15.4
2023-04-30T10:14:45.825Z,15.2
2023-04-30T10:15:55.498Z,15.4
2023-04-30T10:17:02.553Z,15.3
2023-04-30T10:18:12.147Z,15.6
2023-04-30T10:19:24.089Z,15.8
2023-04-30T10:20:30.874Z,15.8
2023-04-30T10:21:37.717Z,15.7
2023-04-30T10:22:44.492Z,15.7
2023-04-30T10:23:51.435Z,15.4
2023-04-30T10:24:58.369Z,15.4
2023-04-30T10:26:05.174Z,15.6
2023-04-30T10:27:11.977Z,15.8
2023-04-30T10:28:18.811Z,16
2023-04-30T10:29:25.653Z,16.1
2023-04-30T10:30:32.436Z,15.7
2023-04-30T10:31:39.401Z,15.8
2023-04-30T10:32:46.292Z,15.9
2023-04-30T10:33:58.609Z,15.8
2023-04-30T10:35:10.631Z,15.6
2023-04-30T10:36:22.639Z,15.7
2023-04-30T10:37:29.457Z,15.8
2023-04-30T10:38:41.541Z,16
2023-04-30T10:39:48.337Z,16
2023-04-30T10:40:55.176Z,16.1
2023-04-30T10:42:01.929Z,16.4
2023-04-30T10:43:08.790Z,16.1
2023-04-30T10:44:15.688Z,16.4
2023-04-30T10:45:25.114Z,16.1
2023-04-30T10:46:40.318Z,15.9
2023-04-30T10:47:46.817Z,16.2
2023-04-30T10:48:53.761Z,16.2
2023-04-30T10:50:00.416Z,15.7
2023-04-30T10:51:07.362Z,16
2023-04-30T10:52:14.219Z,15.7
2023-04-30T10:53:20.996Z,15.3
2023-04-30T10:54:27.919Z,15.4
2023-04-30T10:55:34.757Z,15.6
2023-04-30T10:56:41.596Z,15.5
2023-04-30T10:57:48.431Z,15.4
2023-04-30T10:58:55.211Z,15.3
2023-04-30T11:00:02.065Z,15.4
2023-04-30T11:01:11.724Z,15.1
2023-04-30T11:02:18.507Z,15.7
2023-04-30T11:03:25.378Z,16
2023-04-30T11:04:32.369Z,16
2023-04-30T11:05:39.045Z,15.7
2023-04-30T11:06:46.023Z,16.1
2023-04-30T11:07:52.987Z,16.2
2023-04-30T11:08:59.850Z,15.9
2023-04-30T11:10:06.751Z,15.6
2023-04-30T11:11:13.507Z,15.9
2023-04-30T11:12:23.278Z,15.6
2023-04-30T11:13:33.030Z,15.6
2023-04-30T11:14:47.756Z,15.7
2023-04-30T11:15:54.637Z,15.9
2023-04-30T11:17:01.364Z,15.6
2023-04-30T11:18:08.315Z,15.8
2023-04-30T11:19:14.911Z,15.7
2023-04-30T11:20:21.773Z,15.6
2023-04-30T11:21:28.473Z,15.5
2023-04-30T11:22:35.381Z,15.7
2023-04-30T11:23:42.530Z,16
2023-04-30T11:24:49.271Z,15.9
2023-04-30T11:26:06.436Z,15.9
2023-04-30T11:27:13.197Z,15.8
2023-04-30T11:28:25.251Z,16.2
2023-04-30T11:29:32.161Z,16.4
2023-04-30T11:30:38.986Z,16.6
2023-04-30T11:31:45.965Z,16.4
2023-04-30T11:32:52.801Z,15.9
2023-04-30T11:33:59.616Z,16.2
2023-04-30T11:35:06.391Z,16.2
2023-04-30T11:36:13.323Z,16.3
2023-04-30T11:37:20.056Z,16
2023-04-30T11:38:37.219Z,16
2023-04-30T11:39:44.067Z,16
2023-04-30T11:40:51.261Z,15.7
2023-04-30T11:41:58.094Z,16
2023-04-30T11:43:04.880Z,15.7
2023-04-30T11:44:11.641Z,15.6
2023-04-30T11:45:26.577Z,15.8
2023-04-30T11:46:33.428Z,15.9
2023-04-30T11:47:40.205Z,15.5
2023-04-30T11:48:52.185Z,15.7
2023-04-30T11:49:58.960Z,15.9
2023-04-30T11:51:05.755Z,16
2023-04-30T11:52:20.756Z,16.2
2023-04-30T11:53:27.507Z,16.1
2023-04-30T11:54:34.271Z,16.4
2023-04-30T11:55:41.174Z,16
2023-04-30T11:56:47.968Z,16.1
2023-04-30T11:57:54.692Z,16.1
2023-04-30T11:59:01.522Z,16.3
2023-04-30T12:00:13.514Z,16.1
2023-04-30T12:01:20.471Z,16
2023-04-30T12:02:27.278Z,16.2
2023-04-30T12:03:34.156Z,16.3
2023-04-30T12:04:47.313Z,16.3
2023-04-30T12:05:54.115Z,16.5
2023-04-30T12:07:00.994Z,15.9
2023-04-30T12:08:07.779Z,16.2
2023-04-30T12:09:14.513Z,16
2023-04-30T12:10:21.288Z,16.2
2023-04-30T12:11:30.993Z,15.5
2023-04-30T12:12:37.797Z,15.8
2023-04-30T12:13:44.549Z,16.1
2023-04-30T12:14:59.447Z,15.9
2023-04-30T12:16:06.236Z,15.9
2023-04-30T12:17:13.159Z,15.8
2023-04-30T12:18:19.996Z,15.6
2023-04-30T12:19:26.804Z,15.9
2023-04-30T12:20:33.559Z,15.9
2023-04-30T12:21:40.407Z,16.1
2023-04-30T12:22:49.943Z,16.1
2023-04-30T12:23:56.686Z,16
2023-04-30T12:25:03.464Z,16.4
2023-04-30T12:26:15.699Z,16
2023-04-30T12:27:22.488Z,15.9
2023-04-30T12:28:29.319Z,15.9
2023-04-30T12:29:36.117Z,16
2023-04-30T12:30:42.916Z,16.1
2023-04-30T12:31:49.969Z,16.2
2023-04-30T12:32:56.781Z,15.9
2023-04-30T12:34:03.607Z,15.9
2023-04-30T12:35:10.376Z,16
2023-04-30T12:36:22.272Z,16
2023-04-30T12:37:34.188Z,16.4
2023-04-30T12:38:40.964Z,16.3
2023-04-30T12:39:47.746Z,16.5
2023-04-30T12:40:54.560Z,16.2
2023-04-30T12:42:01.367Z,15.9
2023-04-30T12:43:08.180Z,16
2023-04-30T12:44:14.968Z,16.1
2023-04-30T12:45:21.827Z,16
2023-04-30T12:46:39.081Z,16
2023-04-30T12:47:45.781Z,16.1
2023-04-30T12:48:52.556Z,15.8
2023-04-30T12:49:59.311Z,16.1
2023-04-30T12:51:06.119Z,16.2
2023-04-30T12:52:13.035Z,16.4
2023-04-30T12:53:19.766Z,16.4
2023-04-30T12:54:26.582Z,16.4
2023-04-30T12:55:33.394Z,16.2
2023-04-30T12:56:40.109Z,16.3
2023-04-30T12:57:57.175Z,16.1
2023-04-30T12:59:12.282Z,16.1
2023-04-30T13:00:19.329Z,15.8
2023-04-30T13:01:26.148Z,15.8
2023-04-30T13:02:33.052Z,15.8
2023-04-30T13:03:39.851Z,16
2023-04-30T13:04:46.506Z,15.9
2023-04-30T13:05:53.359Z,16.1
2023-04-30T13:07:00.120Z,16.2
2023-04-30T13:08:06.869Z,16.3
2023-04-30T13:09:13.689Z,16.4
2023-04-30T13:10:20.475Z,16.4
2023-04-30T13:11:27.932Z,16.1
2023-04-30T13:12:34.275Z,16.3
2023-04-30T13:13:41.038Z,16.3
2023-04-30T13:14:47.805Z,16.4
2023-04-30T13:15:54.629Z,16.4
2023-04-30T13:17:01.495Z,16.3
2023-04-30T13:18:08.437Z,16.5
2023-04-30T13:19:15.042Z,16.5
2023-04-30T13:20:21.863Z,16.3
2023-04-30T13:21:28.600Z,16.1
2023-04-30T13:22:35.385Z,16.1
2023-04-30T13:23:51.676Z,16.2
2023-04-30T13:24:48.892Z,16.1
2023-04-30T13:25:55.715Z,16.2
2023-04-30T13:27:02.561Z,16.1
2023-04-30T13:28:09.404Z,16.3
2023-04-30T13:29:16.216Z,16.3
2023-04-30T13:30:26.032Z,16.2
2023-04-30T13:31:32.874Z,16.2
2023-04-30T13:32:39.708Z,16.2
2023-04-30T13:33:46.470Z,16.1
2023-04-30T13:34:53.427Z,15.8
2023-04-30T13:36:01.496Z,16.1
2023-04-30T13:37:09.517Z,16.4
2023-04-30T13:38:16.252Z,16.4
2023-04-30T13:39:23.057Z,16.4
2023-04-30T13:40:29.816Z,16.3
2023-04-30T13:41:36.614Z,16.2
2023-04-30T13:42:43.441Z,16.4
2023-04-30T13:43:50.126Z,16.4
2023-04-30T13:44:56.874Z,16.5
2023-04-30T13:46:03.671Z,16.5
2023-04-30T13:47:10.587Z,16.5
2023-04-30T13:48:17.321Z,16.4
2023-04-30T13:49:24.262Z,16.2
2023-04-30T13:50:31.042Z,16.4
2023-04-30T13:51:37.891Z,16.3
2023-04-30T13:52:44.734Z,16.5
2023-04-30T13:53:51.593Z,16.3
2023-04-30T13:54:58.445Z,16.4
2023-04-30T13:56:05.187Z,16.5
2023-04-30T13:57:11.987Z,16.7
2023-04-30T13:58:18.840Z,16.6
2023-04-30T13:59:25.725Z,16.8
2023-04-30T14:00:32.514Z,16.8
2023-04-30T14:01:39.337Z,16.7
2023-04-30T14:02:46.233Z,16.7
2023-04-30T14:03:53.128Z,16.3
2023-04-30T14:05:05.640Z,16.4
2023-04-30T14:06:06.681Z,16.5
2023-04-30T14:07:13.466Z,16.3
2023-04-30T14:08:21.869Z,16.3
2023-04-30T14:09:27.032Z,16.1
2023-04-30T14:10:33.987Z,16.1
2023-04-30T14:11:40.774Z,16
2023-04-30T14:12:47.532Z,16.2
2023-04-30T14:13:54.344Z,16.3
2023-04-30T14:15:01.143Z,16.3
2023-04-30T14:16:08.270Z,16.3
2023-04-30T14:17:15.032Z,16.3
2023-04-30T14:18:21.805Z,16.1
2023-04-30T14:19:28.599Z,16.1
2023-04-30T14:20:35.723Z,16.1
2023-04-30T14:21:42.689Z,16
2023-04-30T14:22:49.339Z,16.2
2023-04-30T14:23:56.159Z,16.2
2023-04-30T14:25:02.917Z,16.3
2023-04-30T14:26:10.004Z,16.4
2023-04-30T14:27:16.895Z,16.3
2023-04-30T14:28:23.724Z,16.3
2023-04-30T14:29:30.528Z,16.6
2023-04-30T14:30:37.292Z,16.5
2023-04-30T14:31:44.092Z,16.5
2023-04-30T14:32:51.002Z,16.3
2023-04-30T14:33:57.754Z,16.2
2023-04-30T14:35:04.485Z,16.2
2023-04-30T14:36:11.427Z,16.3
2023-04-30T14:37:18.243Z,16.4
2023-04-30T14:38:25.217Z,16.5
2023-04-30T14:39:31.966Z,16.4
2023-04-30T14:40:38.786Z,16.4
2023-04-30T14:41:45.573Z,16.3
2023-04-30T14:42:52.374Z,16.2
2023-04-30T14:43:59.312Z,16.4
2023-04-30T14:45:06.157Z,16.5
2023-04-30T14:46:13.354Z,16
2023-04-30T14:47:20.102Z,16.1
2023-04-30T14:48:26.869Z,16.2
2023-04-30T14:49:33.728Z,16.2
2023-04-30T14:50:40.476Z,16.4
2023-04-30T14:51:47.303Z,16.6
2023-04-30T14:52:54.052Z,16.6
2023-04-30T14:54:00.881Z,16.4
2023-04-30T14:55:07.654Z,16.4
2023-04-30T14:56:14.533Z,16.5
2023-04-30T14:57:21.221Z,16.4
2023-04-30T14:58:28.065Z,16.6
2023-04-30T14:59:34.858Z,16.4
2023-04-30T15:00:41.791Z,16.4
2023-04-30T15:01:48.746Z,16.1
2023-04-30T15:02:55.499Z,16.3
2023-04-30T15:04:02.229Z,16.2
2023-04-30T15:05:09.058Z,16.3
2023-04-30T15:06:15.929Z,16.3
2023-04-30T15:07:22.611Z,16.2
2023-04-30T15:08:29.373Z,16
2023-04-30T15:09:36.153Z,16.3
2023-04-30T15:10:42.850Z,16.3
2023-04-30T15:11:49.822Z,16.2